createdAt,value
2022-10-23T00:00:35.710Z,100.00
2022-10-23T00:03:38.842Z,100.00
2022-10-23T00:06:43.164Z,100.00
2022-10-23T00:09:46.009Z,100.00
2022-10-23T00:12:49.436Z,100.00
2022-10-23T00:18:59.770Z,100.00
2022-10-23T00:22:02.673Z,100.00
2022-10-23T00:25:06.528Z,100.00
2022-10-23T00:28:09.359Z,100.00
2022-10-23T00:31:13.173Z,100.00
2022-10-23T00:34:16.135Z,100.00
2022-10-23T00:37:18.804Z,100.00
2022-10-23T00:40:21.623Z,100.00
2022-10-23T00:43:27.870Z,100.00
2022-10-23T00:46:31.264Z,100.00
2022-10-23T00:49:34.608Z,100.00
2022-10-23T00:52:42.453Z,100.00
2022-10-23T00:55:47.347Z,100.00
2022-10-23T00:58:50.231Z,100.00
2022-10-23T01:01:53.234Z,100.00
2022-10-23T01:04:56.275Z,100.00
2022-10-23T01:08:18.031Z,100.00
2022-10-23T01:11:30.730Z,100.00
2022-10-23T01:14:47.952Z,100.00
2022-10-23T01:18:13.001Z,100.00
2022-10-23T01:22:01.903Z,100.00
2022-10-23T01:25:23.873Z,100.00
2022-10-23T01:28:32.601Z,100.00
2022-10-23T01:32:04.253Z,100.00
2022-10-23T01:35:24.570Z,100.00
2022-10-23T01:38:34.050Z,100.00
2022-10-23T01:41:42.666Z,100.00
2022-10-23T01:45:09.824Z,100.00
2022-10-23T01:48:15.763Z,100.00
2022-10-23T01:51:22.027Z,100.00
2022-10-23T01:54:31.509Z,100.00
2022-10-23T01:57:36.189Z,100.00
2022-10-23T02:00:40.727Z,100.00
2022-10-23T02:03:45.075Z,100.00
2022-10-23T02:06:47.867Z,100.00
2022-10-23T02:09:51.254Z,100.00
2022-10-23T02:13:20.458Z,100.00
2022-10-23T02:16:46.431Z,100.00
2022-10-23T02:20:02.529Z,100.00
2022-10-23T02:23:09.994Z,100.00
2022-10-23T02:26:42.503Z,100.00
2022-10-23T02:30:02.670Z,100.00
2022-10-23T02:33:07.823Z,100.00
2022-10-23T02:36:11.566Z,100.00
2022-10-23T02:39:14.247Z,100.00
2022-10-23T02:42:28.825Z,100.00
2022-10-23T02:45:51.679Z,100.00
2022-10-23T02:49:21.726Z,100.00
2022-10-23T02:52:31.996Z,100.00
2022-10-23T02:55:49.478Z,100.00
2022-10-23T02:59:04.707Z,100.00
2022-10-23T03:05:42.149Z,100.00
2022-10-23T03:08:59.161Z,100.00
2022-10-23T03:12:01.878Z,100.00
2022-10-23T03:15:08.969Z,100.00
2022-10-23T03:18:11.574Z,100.00
2022-10-23T03:21:15.077Z,100.00
2022-10-23T03:24:17.642Z,100.00
2022-10-23T03:27:20.620Z,100.00
2022-10-23T03:30:23.364Z,100.00
2022-10-23T03:33:26.725Z,100.00
2022-10-23T03:36:29.328Z,100.00
2022-10-23T03:39:32.331Z,100.00
2022-10-23T03:42:34.988Z,100.00
2022-10-23T03:45:38.608Z,100.00
2022-10-23T03:48:42.121Z,100.00
2022-10-23T03:51:51.871Z,100.00
2022-10-23T03:54:56.224Z,100.00
2022-10-23T03:57:59.113Z,100.00
2022-10-23T04:01:01.883Z,100.00
2022-10-23T04:04:04.823Z,100.00
2022-10-23T04:07:07.468Z,100.00
2022-10-23T04:10:10.697Z,100.00
2022-10-23T04:13:13.235Z,100.00
2022-10-23T04:16:16.238Z,100.00
2022-10-23T04:19:20.004Z,100.00
2022-10-23T04:22:25.939Z,100.00
2022-10-23T04:25:30.211Z,100.00
2022-10-23T04:28:33.471Z,100.00
2022-10-23T04:31:36.055Z,100.00
2022-10-23T04:34:38.920Z,100.00
2022-10-23T04:37:42.103Z,100.00
2022-10-23T04:40:45.263Z,100.00
2022-10-23T04:43:48.370Z,100.00
2022-10-23T04:46:51.325Z,100.00
2022-10-23T04:49:53.961Z,100.00
2022-10-23T04:52:58.008Z,100.00
2022-10-23T04:56:01.326Z,100.00
2022-10-23T05:02:13.795Z,100.00
2022-10-23T05:05:17.708Z,100.00
2022-10-23T05:08:23.219Z,100.00
2022-10-23T05:11:27.432Z,100.00
2022-10-23T05:14:30.183Z,100.00
2022-10-23T05:17:37.023Z,100.00
2022-10-23T05:20:40.371Z,100.00
2022-10-23T05:23:46.154Z,100.00
2022-10-23T05:26:51.686Z,100.00
2022-10-23T05:29:55.061Z,100.00
2022-10-23T05:32:59.405Z,100.00
2022-10-23T05:36:03.174Z,100.00
2022-10-23T05:39:06.418Z,100.00
2022-10-23T05:42:09.442Z,100.00
2022-10-23T05:45:13.160Z,100.00
2022-10-23T05:48:30.157Z,100.00
2022-10-23T05:51:38.981Z,100.00
2022-10-23T05:54:42.517Z,100.00
2022-10-23T05:57:47.375Z,100.00
2022-10-23T06:00:50.680Z,100.00
2022-10-23T06:03:55.089Z,100.00
2022-10-23T06:06:59.053Z,100.00
2022-10-23T06:10:02.067Z,100.00
2022-10-23T06:13:05.167Z,100.00
2022-10-23T06:16:20.102Z,100.00
2022-10-23T06:19:22.807Z,100.00
2022-10-23T06:22:27.902Z,100.00
2022-10-23T06:25:31.163Z,100.00
2022-10-23T06:28:34.510Z,100.00
2022-10-23T06:31:37.135Z,100.00
2022-10-23T06:34:40.162Z,100.00
2022-10-23T06:37:43.372Z,100.00
2022-10-23T06:40:55.451Z,100.00
2022-10-23T06:43:58.391Z,100.00
2022-10-23T06:47:02.247Z,100.00
2022-10-23T06:50:15.343Z,100.00
2022-10-23T06:53:19.403Z,100.00
2022-10-23T06:56:22.944Z,100.00
2022-10-23T06:59:25.983Z,100.00
2022-10-23T07:02:28.817Z,100.00
2022-10-23T07:05:33.847Z,100.00
2022-10-23T07:08:38.084Z,100.00
2022-10-23T07:11:42.328Z,100.00
2022-10-23T07:14:44.908Z,100.00
2022-10-23T07:17:48.017Z,100.00
2022-10-23T07:20:58.220Z,100.00
2022-10-23T07:24:01.903Z,100.00
2022-10-23T07:27:05.080Z,100.00
2022-10-23T07:30:08.695Z,100.00
2022-10-23T07:33:13.847Z,100.00
2022-10-23T07:36:17.997Z,100.00
2022-10-23T07:39:22.475Z,100.00
2022-10-23T07:42:26.327Z,100.00
2022-10-23T07:45:29.020Z,100.00
2022-10-23T07:48:32.374Z,100.00
2022-10-23T07:51:35.075Z,100.00
2022-10-23T07:54:39.057Z,100.00
2022-10-23T07:57:43.006Z,100.00
2022-10-23T08:00:52.125Z,99.28
2022-10-23T08:03:55.286Z,98.84
2022-10-23T08:06:58.654Z,98.85
2022-10-23T08:10:01.664Z,98.42
2022-10-23T08:13:04.881Z,97.77
2022-10-23T08:16:10.711Z,97.63
2022-10-23T08:19:17.075Z,97.55
2022-10-23T08:22:20.086Z,96.80
2022-10-23T08:25:24.887Z,95.07
2022-10-23T08:28:29.456Z,95.53
2022-10-23T08:31:32.875Z,95.15
2022-10-23T08:34:37.928Z,94.17
2022-10-23T08:37:40.719Z,93.49
2022-10-23T08:40:46.290Z,92.94
2022-10-23T08:44:20.141Z,93.28
2022-10-23T08:47:41.240Z,93.51
2022-10-23T08:50:51.089Z,92.37
2022-10-23T08:54:06.460Z,92.65
2022-10-23T08:57:15.637Z,92.14
2022-10-23T09:00:18.788Z,92.29
2022-10-23T09:03:21.935Z,91.27
2022-10-23T09:06:41.259Z,91.71
2022-10-23T09:10:22.839Z,91.95
2022-10-23T09:13:43.857Z,91.43
2022-10-23T09:17:18.733Z,91.37
2022-10-23T09:20:25.967Z,91.07
2022-10-23T09:23:28.667Z,90.79
2022-10-23T09:26:31.508Z,92.08
2022-10-23T09:29:38.449Z,91.65
2022-10-23T09:32:43.563Z,91.64
2022-10-23T09:35:59.399Z,91.58
2022-10-23T09:39:02.283Z,90.68
2022-10-23T09:42:26.023Z,91.73
2022-10-23T09:45:34.884Z,90.97
2022-10-23T09:48:42.344Z,89.76
2022-10-23T09:52:02.767Z,89.39
2022-10-23T09:55:26.052Z,90.03
2022-10-23T09:58:35.247Z,89.77
2022-10-23T10:01:48.054Z,89.87
2022-10-23T10:04:53.243Z,89.85
2022-10-23T10:08:07.344Z,89.87
2022-10-23T10:11:15.955Z,88.74
2022-10-23T10:14:39.826Z,88.94
2022-10-23T10:17:54.593Z,88.31
2022-10-23T10:21:21.240Z,89.26
2022-10-23T10:24:34.556Z,88.44
2022-10-23T10:27:58.765Z,88.59
2022-10-23T10:31:23.602Z,87.69
2022-10-23T10:34:47.472Z,88.61
2022-10-23T10:38:15.045Z,88.03
2022-10-23T10:41:36.690Z,87.74
2022-10-23T10:45:17.454Z,85.69
2022-10-23T10:48:31.367Z,85.82
2022-10-23T10:51:40.052Z,84.74
2022-10-23T10:54:58.962Z,85.32
2022-10-23T10:58:18.315Z,84.12
2022-10-23T11:01:41.013Z,83.71
2022-10-23T11:04:51.240Z,83.15
2022-10-23T11:08:22.422Z,84.41
2022-10-23T11:11:45.646Z,83.88
2022-10-23T11:14:50.009Z,83.53
2022-10-23T11:17:59.500Z,84.39
2022-10-23T11:21:43.506Z,82.59
2022-10-23T11:25:13.692Z,83.46
2022-10-23T11:28:40.921Z,84.06
2022-10-23T11:32:21.555Z,84.41
2022-10-23T11:35:54.788Z,82.86
2022-10-23T11:39:15.791Z,82.24
2022-10-23T11:42:32.034Z,83.51
2022-10-23T11:45:37.694Z,82.22
2022-10-23T11:48:43.684Z,83.45
2022-10-23T11:51:46.563Z,83.05
2022-10-23T11:54:49.187Z,82.95
2022-10-23T11:58:07.351Z,84.59
2022-10-23T12:01:28.425Z,83.75
2022-10-23T12:04:52.766Z,82.58
2022-10-23T12:08:00.860Z,83.56
2022-10-23T12:11:03.956Z,83.30
2022-10-23T12:14:29.010Z,83.37
2022-10-23T12:17:36.940Z,83.41
2022-10-23T12:20:50.122Z,83.05
2022-10-23T12:23:59.707Z,83.69
2022-10-23T12:27:08.997Z,84.07
2022-10-23T12:30:24.734Z,83.42
2022-10-23T12:33:53.479Z,84.15
2022-10-23T12:37:08.558Z,84.90
2022-10-23T12:40:12.139Z,85.05
2022-10-23T12:43:26.242Z,86.28
2022-10-23T12:46:35.581Z,86.18
2022-10-23T12:49:48.961Z,85.68
2022-10-23T12:52:54.485Z,85.21
2022-10-23T12:59:16.377Z,85.43
2022-10-23T13:02:30.801Z,85.43
2022-10-23T13:05:33.613Z,84.13
2022-10-23T13:08:43.215Z,83.93
2022-10-23T13:11:47.860Z,85.30
2022-10-23T13:15:06.583Z,86.34
2022-10-23T13:18:11.359Z,86.67
2022-10-23T13:21:21.227Z,86.58
2022-10-23T13:24:26.628Z,86.49
2022-10-23T13:27:34.497Z,86.86
2022-10-23T13:30:43.489Z,87.80
2022-10-23T13:33:52.630Z,87.29
2022-10-23T13:36:58.681Z,87.86
2022-10-23T13:40:10.309Z,88.41
2022-10-23T13:43:16.482Z,87.81
2022-10-23T13:46:27.181Z,87.77
2022-10-23T13:49:29.778Z,88.11
2022-10-23T13:52:32.701Z,87.71
2022-10-23T13:55:35.250Z,88.79
2022-10-23T13:58:38.692Z,88.86
2022-10-23T14:01:42.817Z,89.32
2022-10-23T14:04:47.255Z,90.11
2022-10-23T14:07:49.795Z,90.27
2022-10-23T14:10:52.679Z,91.03
2022-10-23T14:13:55.484Z,91.28
2022-10-23T14:16:58.538Z,90.79
2022-10-23T14:20:03.066Z,90.94
2022-10-23T14:23:08.271Z,91.52
2022-10-23T14:26:14.464Z,91.91
2022-10-23T14:29:22.824Z,92.23
2022-10-23T14:32:26.606Z,92.69
2022-10-23T14:35:29.591Z,92.56
2022-10-23T14:38:32.151Z,92.84
2022-10-23T14:41:35.141Z,92.98
2022-10-23T14:47:47.054Z,92.77
2022-10-23T14:50:50.088Z,93.37
2022-10-23T14:53:59.528Z,93.42
2022-10-23T14:57:03.308Z,93.25
2022-10-23T15:00:07.356Z,93.72
2022-10-23T15:03:09.978Z,93.95
2022-10-23T15:06:17.479Z,95.19
2022-10-23T15:09:21.228Z,94.56
2022-10-23T15:12:24.599Z,96.40
2022-10-23T15:15:27.148Z,98.41
2022-10-23T15:18:30.126Z,99.83
2022-10-23T15:21:32.853Z,100.00
2022-10-23T15:24:36.144Z,100.00
2022-10-23T15:27:38.734Z,100.00
2022-10-23T15:30:44.090Z,100.00
2022-10-23T15:33:46.874Z,100.00
2022-10-23T15:36:51.143Z,100.00
2022-10-23T15:39:56.165Z,100.00
2022-10-23T15:43:01.532Z,100.00
2022-10-23T15:46:04.092Z,100.00
2022-10-23T15:49:08.591Z,100.00
2022-10-23T15:52:11.500Z,100.00
2022-10-23T15:55:14.972Z,100.00
2022-10-23T15:58:17.770Z,100.00
2022-10-23T16:01:20.951Z,100.00
2022-10-23T16:04:24.271Z,100.00
2022-10-23T16:07:27.040Z,100.00
2022-10-23T16:10:30.047Z,100.00
2022-10-23T16:13:32.879Z,100.00
2022-10-23T16:16:35.862Z,100.00
2022-10-23T16:19:38.619Z,100.00
2022-10-23T16:22:44.850Z,100.00
2022-10-23T16:25:47.830Z,100.00
2022-10-23T16:28:58.018Z,100.00
2022-10-23T16:32:00.882Z,100.00
2022-10-23T16:35:04.196Z,100.00
2022-10-23T16:38:12.904Z,100.00
2022-10-23T16:41:16.103Z,100.00
2022-10-23T16:44:19.064Z,100.00
2022-10-23T16:47:22.840Z,100.00
2022-10-23T16:50:25.772Z,100.00
2022-10-23T16:53:29.043Z,100.00
2022-10-23T16:56:32.113Z,100.00
2022-10-23T16:59:35.306Z,100.00
2022-10-23T17:02:38.329Z,100.00
2022-10-23T17:05:41.400Z,100.00
2022-10-23T17:08:44.789Z,100.00
2022-10-23T17:11:48.148Z,100.00
2022-10-23T17:14:51.154Z,100.00
2022-10-23T17:17:54.307Z,100.00
2022-10-23T17:20:57.638Z,100.00
2022-10-23T17:27:08.532Z,100.00
2022-10-23T17:30:13.056Z,100.00
2022-10-23T17:33:18.146Z,100.00
2022-10-23T17:36:21.888Z,100.00
2022-10-23T17:39:29.288Z,100.00
2022-10-23T17:42:32.379Z,100.00
2022-10-23T17:45:35.733Z,100.00
2022-10-23T17:48:43.459Z,100.00
2022-10-23T17:51:46.401Z,100.00
2022-10-23T17:54:52.450Z,100.00
2022-10-23T17:57:56.213Z,100.00
2022-10-23T18:01:08.862Z,100.00
2022-10-23T18:04:12.559Z,100.00
2022-10-23T18:07:16.022Z,100.00
2022-10-23T18:10:19.754Z,100.00
2022-10-23T18:13:22.595Z,100.00
2022-10-23T18:16:26.091Z,100.00
2022-10-23T18:19:29.766Z,100.00
2022-10-23T18:22:33.280Z,100.00
2022-10-23T18:25:35.923Z,100.00
2022-10-23T18:28:39.395Z,100.00
2022-10-23T18:31:42.324Z,100.00
2022-10-23T18:34:45.539Z,100.00
2022-10-23T18:37:48.591Z,100.00
2022-10-23T18:40:55.231Z,100.00
2022-10-23T18:43:58.191Z,100.00
2022-10-23T18:47:01.476Z,100.00
2022-10-23T18:50:04.951Z,100.00
2022-10-23T18:53:08.151Z,100.00
2022-10-23T18:56:11.067Z,100.00
2022-10-23T18:59:18.292Z,100.00
2022-10-23T19:02:21.778Z,100.00
2022-10-23T19:05:26.153Z,100.00
2022-10-23T19:08:29.207Z,100.00
2022-10-23T19:11:32.394Z,100.00
2022-10-23T19:14:35.315Z,100.00
2022-10-23T19:17:38.659Z,100.00
2022-10-23T19:20:42.969Z,100.00
2022-10-23T19:23:46.535Z,100.00
2022-10-23T19:26:51.058Z,100.00
2022-10-23T19:29:55.899Z,100.00
2022-10-23T19:32:59.760Z,100.00
2022-10-23T19:36:05.299Z,100.00
2022-10-23T19:39:08.370Z,100.00
2022-10-23T19:42:12.237Z,100.00
2022-10-23T19:45:15.744Z,100.00
2022-10-23T19:48:19.010Z,100.00
2022-10-23T19:51:21.869Z,100.00
2022-10-23T19:54:25.423Z,100.00
2022-10-23T19:57:30.450Z,100.00
2022-10-23T20:00:33.637Z,100.00
2022-10-23T20:03:37.322Z,100.00
2022-10-23T20:06:40.231Z,100.00
2022-10-23T20:09:43.172Z,100.00
2022-10-23T20:12:56.374Z,100.00
2022-10-23T20:16:00.879Z,100.00
2022-10-23T20:19:07.164Z,100.00
2022-10-23T20:22:10.727Z,100.00
2022-10-23T20:25:13.842Z,100.00
2022-10-23T20:28:17.151Z,100.00
2022-10-23T20:31:21.801Z,100.00
2022-10-23T20:34:24.935Z,100.00
2022-10-23T20:37:27.695Z,100.00
2022-10-23T20:40:30.738Z,100.00
2022-10-23T20:43:34.010Z,100.00
2022-10-23T20:46:39.419Z,100.00
2022-10-23T20:49:41.966Z,100.00
2022-10-23T20:52:45.625Z,100.00
2022-10-23T20:55:48.235Z,100.00
2022-10-23T20:58:51.386Z,100.00
2022-10-23T21:01:55.314Z,100.00
2022-10-23T21:04:59.004Z,100.00
2022-10-23T21:08:01.555Z,100.00
2022-10-23T21:11:04.996Z,100.00
2022-10-23T21:14:08.409Z,100.00
2022-10-23T21:17:16.538Z,100.00
2022-10-23T21:20:19.249Z,100.00
2022-10-23T21:23:22.182Z,100.00
2022-10-23T21:26:26.057Z,100.00
2022-10-23T21:29:28.946Z,100.00
2022-10-23T21:32:31.536Z,100.00
2022-10-23T21:35:34.654Z,100.00
2022-10-23T21:38:37.346Z,100.00
2022-10-23T21:41:40.255Z,100.00
2022-10-23T21:44:42.936Z,100.00
2022-10-23T21:47:46.296Z,100.00
2022-10-23T21:53:57.606Z,100.00
2022-10-23T21:57:00.203Z,100.00
2022-10-23T22:00:05.601Z,100.00
2022-10-23T22:03:15.082Z,100.00
2022-10-23T22:06:24.499Z,100.00
2022-10-23T22:09:27.055Z,100.00
2022-10-23T22:12:29.907Z,100.00
2022-10-23T22:15:32.464Z,100.00
2022-10-23T22:18:36.434Z,100.00
2022-10-23T22:21:39.682Z,100.00
2022-10-23T22:24:42.505Z,100.00
2022-10-23T22:27:45.328Z,100.00
2022-10-23T22:30:48.612Z,100.00
2022-10-23T22:33:52.367Z,100.00
2022-10-23T22:36:55.555Z,100.00
2022-10-23T22:39:58.159Z,100.00
2022-10-23T22:43:01.658Z,100.00
2022-10-23T22:46:08.619Z,100.00
2022-10-23T22:49:11.711Z,100.00
2022-10-23T22:52:14.288Z,100.00
2022-10-23T22:55:17.211Z,100.00
2022-10-23T22:58:19.912Z,100.00
2022-10-23T23:01:25.314Z,100.00
2022-10-23T23:04:43.303Z,100.00
2022-10-23T23:07:46.401Z,100.00
2022-10-23T23:10:53.934Z,100.00
2022-10-23T23:13:56.833Z,100.00
2022-10-23T23:16:59.515Z,100.00
2022-10-23T23:20:02.465Z,100.00
2022-10-23T23:23:05.097Z,100.00
2022-10-23T23:26:08.463Z,100.00
2022-10-23T23:29:11.254Z,100.00
2022-10-23T23:32:14.164Z,100.00
2022-10-23T23:35:17.481Z,100.00
2022-10-23T23:38:20.365Z,100.00
2022-10-23T23:41:23.866Z,100.00
2022-10-23T23:44:26.940Z,100.00
2022-10-23T23:47:29.719Z,100.00
2022-10-23T23:50:32.663Z,100.00
2022-10-23T23:53:35.258Z,100.00
2022-10-23T23:56:38.416Z,100.00
2022-10-23T23:59:41.775Z,100.00
